Terminal Aerodrome Forecast
Issued by NWS

Home | Current Version | Previous Version | Text Only | Print | Product List | Glossary On
Versions: 1 2 3 4 5 6 7 8 9 10 11 12 13 14 15 16 17 18
000
FTUS44 KBMX 181720
TAFTCL
TAF
KTCL 181720Z 1818/1918 12005KT P6SM BKN025
     FM190600 14008KT 5SM SHRA OVC007
     FM191200 17008KT P6SM OVC007=

USA.gov is the U.S. government's official web portal to all federal, state and local government web resources and services.